Tropical Cyclones
[Index]
Main Index Home Page Stock Weather Photos Extreme Storms Discussion Storm News and Storm Chasing Reports Tropical Cyclones / Hurricanes / Typhoons Weather Data and Links Wild Fires / Bushfires Weather Observation Techniques Weather Picture Catalogue Tornado Pictures and Reports Stock Video Footage and DVDs for sale
Season 1957-1958 Tropical Cyclone 195832 Track Map
Season 1957-1958 Summaries: [BoM-AU] [JTWC-AU] [JTWC-SIO] [JTWC-SPAC] [JTWC-SH]
<<- Previous TC | JTWC 1957-1958 Season | Next TC ->>

click for intensity scale information  Lat/long Grid: Show Hide

 Date Labels: Show Hide

Joint Typhoon Warning Centre Cyclone Data

Name: 195832
Number: 339 / 5832

05 Jun 1958 12:00 UTC to 15 Jun 1958 00:00 UTC

    date/time    lat    long     hPa   cat  kts
1958-06-05 12    7.2   161.8                              
1958-06-05 18    8.1   160.0                              
1958-06-06 00    9.0   159.0                              
1958-06-06 06   10.0   158.8                              
1958-06-06 12   11.0   158.6                              
1958-06-06 18   11.7   158.2                              
1958-06-07 00   12.5   157.8                              
1958-06-07 06   14.2   157.1                              
1958-06-07 12   16.0   156.6                              
1958-06-07 18   17.6   157.0                              
1958-06-08 00   18.9   157.8                              
1958-06-08 06   19.7   158.7                              
1958-06-08 12   20.5   159.6                              
1958-06-08 18   21.3   160.4                              
1958-06-09 00   22.0   160.9                              
1958-06-09 06   22.6   161.0                              
1958-06-09 12   23.2   161.2                              
1958-06-09 18   23.7   161.3                              
1958-06-10 00   24.2   161.5                              
1958-06-10 06   25.3   161.6                              
1958-06-10 12   26.5   161.8                              
1958-06-10 18   27.6   161.6                              
1958-06-11 00   28.3   161.0                              
1958-06-11 06   28.4   160.4                              
1958-06-11 12   28.1   159.9                              
1958-06-11 18   27.6   159.9                              
1958-06-12 00   27.3   160.6                              
1958-06-12 06   27.7   161.5                              
1958-06-12 12   28.2   162.4                              
1958-06-12 18   28.7   163.3                              
1958-06-13 00   29.2   164.2                              
1958-06-13 06   30.0   165.7                              
1958-06-13 12   30.8   167.5                              
1958-06-13 18   31.3   168.7                              
1958-06-14 00   31.7   170.3                              
1958-06-14 06   32.3   173.4                              
1958-06-14 12   33.0   177.0                              
1958-06-14 18   33.9   179.9W                             
1958-06-15 00   34.9   177.0W                             
Winds are 1-min average.

Tropical cyclone tracks developed by Michael Bath using data from the Joint Typhoon Warning Centre Best Tracks and Google Maps.


[Australian Severe Weather index] [Copyright Notice] [Email Contacts] [Search This Site] [Privacy Policy]
Document: tropical_cyclone_195832.htm Updated: 18 September 2016